Time;durP1;ratioP1;P1;durP2;ratioP2;P2;SDS_P1;SDS_P2;PMS_P1;PMS_P2;Temp;Humidity;BMP_temperature;BMP_pressure;BME280_temperature;BME280_humidity;BME280_pressure;Samples;Min_cycle;Max_cycle;Signal;HPM_P1;HPM_P2
2021/07/27 00:00:14;;;;;;;;;;;;;;;;;;4986082;28;1560;-91
2021/07/27 00:02:39;;;;;;;;;;;;;;;;;;4984533;28;1182;-91
2021/07/27 00:05:05;;;;;;;;;;;;;;;;;;4983456;28;1368;-91
2021/07/27 00:07:30;;;;;;;;;;;;;;;;;;4983502;28;1588;-92
2021/07/27 00:09:55;;;;;;;;;;;;;;;;;;4982106;28;1616;-89
2021/07/27 00:12:20;;;;;;;;;;;;;;;;;;4987650;28;1377;-90
2021/07/27 00:14:45;;;;;;;;;;;;;;;;;;4985605;28;1125;-89
2021/07/27 00:17:11;;;;;;;;;;;;;;;;;;4980809;28;1203;-89
2021/07/27 00:19:36;;;;;;;;;;;;;;;;;;4988333;28;1910;-89
2021/07/27 00:22:01;;;;;;;;;;;;;;;;;;4972537;28;1438;-92
2021/07/27 00:24:27;;;;;;;;;;;;;;;;;;4983335;28;1617;-89
2021/07/27 00:26:54;;;;;;;;;;;;;;;;;;4986998;28;1557;-89
2021/07/27 00:29:19;;;;;;;;;;;;;;;;;;4988453;28;1254;-90
2021/07/27 00:31:44;;;;;;;;;;;;;;;;;;5020476;23;2652;-52
2021/07/27 00:34:09;;;;;;;;;;;;;;;;;;5001776;28;1526;-52
2021/07/27 00:36:35;;;;;;;;;;;;;;;;;;5004371;28;1371;-51
2021/07/27 00:39:00;;;;;;;;;;;;;;;;;;5007137;28;1907;-51
2021/07/27 00:41:25;;;;;;;;;;;;;;;;;;5008275;28;1611;-53
2021/07/27 00:43:51;;;;;;;;;;;;;;;;;;5010111;28;1146;-53
2021/07/27 00:46:16;;;;;;;;;;;;;;;;;;5007320;28;1531;-52
2021/07/27 00:48:41;;;;;;;;;;;;;;;;;;5010214;28;1031;-51
2021/07/27 00:51:06;;;;;;;;;;;;;;;;;;5005749;28;1688;-52
2021/07/27 00:53:31;;;;;;;;;;;;;;;;;;5010740;28;1249;-52
2021/07/27 00:55:57;;;;;;;;;;;;;;;;;;4991506;28;1470;-51
2021/07/27 00:58:22;;;;;;;;;;;;;;;;;;4989570;28;1969;-51
2021/07/27 01:00:47;;;;;;;;;;;;;;;;;;5005245;28;1036;-53
2021/07/27 01:03:12;;;;;;;;;;;;;;;;;;4984948;28;1607;-52
2021/07/27 01:05:38;;;;;;;;;;;;;;;;;;5008453;28;1272;-52
2021/07/27 01:08:03;;;;;;;;;;;;;;;;;;5010507;28;1182;-51
2021/07/27 01:10:28;;;;;;;;;;;;;;;;;;5007870;28;1618;-54
2021/07/27 01:12:54;;;;;;;;;;;;;;;;;;5006695;28;1528;-53
2021/07/27 01:15:19;;;;;;;;;;;;;;;;;;5008406;28;1316;-53
2021/07/27 01:17:44;;;;;;;;;;;;;;;;;;5007988;28;1535;-52
2021/07/27 01:39:06;;;;;;;;;;;;;;;;;;5020567;28;1902;-52
2021/07/27 01:44:02;;;;;;;;;;;;;;;;;;5019959;28;1280;-54
2021/07/27 01:46:33;;;;;;;;;;;;;;;;;;5024999;28;1280;-54
2021/07/27 01:48:58;;;;;;;;;;;;;;;;;;5020695;28;1157;-51
2021/07/27 01:51:24;;;;;;;;;;;;;;;;;;5023986;28;1671;-53
2021/07/27 01:53:55;;;;;;;;;;;;;;;;;;5020358;28;1196;-53
2021/07/27 01:56:23;;;;;;;;;;;;;;;;;;5021919;28;1522;-53
2021/07/27 01:58:49;;;;;;;;;;;;;;;;;;5023415;28;1914;-52
2021/07/27 02:01:14;;;;;;;;;;;;;;;;;;5020192;28;1597;-53
2021/07/27 02:03:40;;;;;;;;;;;;;;;;;;5020094;28;1402;-53
2021/07/27 02:06:05;;;;;;;;;;;;;;;;;;5024416;28;1398;-51
2021/07/27 02:08:30;;;;;;;;;;;;;;;;;;5019778;28;1606;-53
2021/07/27 02:11:11;;;;;;;;;;;;;;;;;;5009683;28;1571;-52
2021/07/27 02:13:52;;;;;;;;;;;;;;;;;;5023198;28;1625;-52
2021/07/27 02:16:17;;;;;;;;;;;;;;;;;;5024021;28;1561;-51
2021/07/27 02:18:42;;;;;;;;;;;;;;;;;;5025335;28;1976;-51
2021/07/27 02:21:07;;;;;;;;;;;;;;;;;;5021860;28;1094;-53
2021/07/27 02:23:33;;;;;;;;;;;;;;;;;;5023328;28;1621;-53
2021/07/27 02:25:58;;;;;;;;;;;;;;;;;;5028084;28;1976;-53
2021/07/27 02:28:23;;;;;;;;;;;;;;;;;;5024637;28;1495;-52
2021/07/27 02:31:09;;;;;;;;;;;;;;;;;;5025820;28;1166;-53
2021/07/27 02:33:38;;;;;;;;;;;;;;;;;;5025506;28;1595;-52
2021/07/27 02:36:03;;;;;;;;;;;;;;;;;;5023415;28;1402;-52
2021/07/27 02:38:28;;;;;;;;;;;;;;;;;;5023041;28;1910;-53
2021/07/27 02:40:53;;;;;;;;;;;;;;;;;;5027362;28;1545;-53
2021/07/27 02:43:18;;;;;;;;;;;;;;;;;;5021143;28;1624;-52
2021/07/27 02:45:44;;;;;;;;;;;;;;;;;;5028982;28;1390;-52
2021/07/27 02:48:09;;;;;;;;;;;;;;;;;;5023445;28;1228;-53
2021/07/27 02:50:34;;;;;;;;;;;;;;;;;;5026376;28;1081;-52
2021/07/27 02:52:59;;;;;;;;;;;;;;;;;;5023143;28;1617;-53
2021/07/27 02:55:24;;;;;;;;;;;;;;;;;;5026636;28;1613;-52
2021/07/27 02:57:50;;;;;;;;;;;;;;;;;;5024207;28;1561;-52
2021/07/27 03:00:15;;;;;;;;;;;;;;;;;;5026937;28;1899;-53
2021/07/27 03:02:43;;;;;;;;;;;;;;;;;;5023590;28;1146;-53
2021/07/27 03:05:08;;;;;;;;;;;;;;;;;;5023054;28;1485;-53
2021/07/27 03:07:49;;;;;;;;;;;;;;;;;;5024602;28;1529;-52
2021/07/27 03:10:20;;;;;;;;;;;;;;;;;;5022281;28;1723;-52
2021/07/27 03:12:52;;;;;;;;;;;;;;;;;;5027378;28;1312;-53
2021/07/27 03:15:21;;;;;;;;;;;;;;;;;;5024821;28;1150;-52
2021/07/27 03:17:46;;;;;;;;;;;;;;;;;;5021853;28;1225;-53
2021/07/27 03:20:13;;;;;;;;;;;;;;;;;;5023097;28;1910;-52
2021/07/27 03:22:41;;;;;;;;;;;;;;;;;;5021244;28;1595;-51
2021/07/27 03:25:07;;;;;;;;;;;;;;;;;;5023595;28;1582;-52
2021/07/27 03:27:33;;;;;;;;;;;;;;;;;;5024305;28;1350;-52
2021/07/27 03:29:58;;;;;;;;;;;;;;;;;;5027066;28;1149;-53
2021/07/27 03:32:23;;;;;;;;;;;;;;;;;;5022398;28;1102;-53
2021/07/27 03:34:48;;;;;;;;;;;;;;;;;;5022785;28;1640;-52
2021/07/27 03:37:16;;;;;;;;;;;;;;;;;;5024292;28;1367;-52
2021/07/27 03:39:41;;;;;;;;;;;;;;;;;;5026051;28;1949;-53
2021/07/27 03:42:07;;;;;;;;;;;;;;;;;;5021967;28;1557;-53
2021/07/27 03:44:33;;;;;;;;;;;;;;;;;;5020699;28;1398;-50
2021/07/27 03:46:58;;;;;;;;;;;;;;;;;;5019717;28;1277;-53
2021/07/27 03:49:24;;;;;;;;;;;;;;;;;;5022600;28;1613;-52
2021/07/27 03:51:49;;;;;;;;;;;;;;;;;;5024734;28;1229;-51
2021/07/27 03:54:14;;;;;;;;;;;;;;;;;;5022121;28;977;-53
2021/07/27 03:56:39;;;;;;;;;;;;;;;;;;5021743;28;1613;-53
2021/07/27 03:59:05;;;;;;;;;;;;;;;;;;5023916;28;1978;-53
2021/07/27 04:01:30;;;;;;;;;;;;;;;;;;5018600;28;1150;-52
2021/07/27 04:03:55;;;;;;;;;;;;;;;;;;5019277;28;1429;-53
2021/07/27 04:06:20;;;;;;;;;;;;;;;;;;5019815;28;1288;-52
2021/07/27 04:08:46;;;;;;;;;;;;;;;;;;5025203;28;1649;-53
2021/07/27 04:11:11;;;;;;;;;;;;;;;;;;5024507;28;1609;-52
2021/07/27 04:13:36;;;;;;;;;;;;;;;;;;5020761;28;1229;-51
2021/07/27 04:16:02;;;;;;;;;;;;;;;;;;5021738;28;1419;-53
2021/07/27 04:18:27;;;;;;;;;;;;;;;;;;5023187;28;1942;-51
2021/07/27 04:20:59;;;;;;;;;;;;;;;;;;5022042;28;1387;-51
2021/07/27 04:23:24;;;;;;;;;;;;;;;;;;5025214;28;1133;-53
2021/07/27 04:25:49;;;;;;;;;;;;;;;;;;5022491;28;1653;-53
2021/07/27 04:28:14;;;;;;;;;;;;;;;;;;5022508;28;1533;-52
2021/07/27 04:30:39;;;;;;;;;;;;;;;;;;5022870;28;1237;-51
2021/07/27 04:33:05;;;;;;;;;;;;;;;;;;5027049;28;1542;-53
2021/07/27 04:35:30;;;;;;;;;;;;;;;;;;5022887;28;1604;-52
2021/07/27 04:37:56;;;;;;;;;;;;;;;;;;5024633;28;1086;-53
2021/07/27 04:40:21;;;;;;;;;;;;;;;;;;5009447;28;1592;-51
2021/07/27 04:42:46;;;;;;;;;;;;;;;;;;5027172;28;1224;-52
2021/07/27 04:45:12;;;;;;;;;;;;;;;;;;5023919;28;1629;-51
2021/07/27 04:47:37;;;;;;;;;;;;;;;;;;5021625;28;1367;-52
2021/07/27 04:50:02;;;;;;;;;;;;;;;;;;5028929;28;1189;-53
2021/07/27 04:52:28;;;;;;;;;;;;;;;;;;5023957;28;1240;-53
2021/07/27 04:54:56;;;;;;;;;;;;;;;;;;5020157;28;1922;-51
2021/07/27 04:57:21;;;;;;;;;;;;;;;;;;5025002;28;1376;-52
2021/07/27 04:59:47;;;;;;;;;;;;;;;;;;5024170;28;1950;-51
2021/07/27 05:02:12;;;;;;;;;;;;;;;;;;5021159;28;1154;-53
2021/07/27 05:04:37;;;;;;;;;;;;;;;;;;5019284;28;1594;-52
2021/07/27 05:07:02;;;;;;;;;;;;;;;;;;5021654;28;1378;-52
2021/07/27 05:09:28;;;;;;;;;;;;;;;;;;5023716;28;1181;-53
2021/07/27 05:11:56;;;;;;;;;;;;;;;;;;5024832;28;1673;-53
2021/07/27 05:14:21;;;;;;;;;;;;;;;;;;5026653;28;1302;-53
2021/07/27 05:16:46;;;;;;;;;;;;;;;;;;5024300;28;1286;-52
2021/07/27 05:19:12;;;;;;;;;;;;;;;;;;5021638;28;2031;-51
2021/07/27 05:21:37;;;;;;;;;;;;;;;;;;5019911;28;1264;-54
2021/07/27 05:24:02;;;;;;;;;;;;;;;;;;5023832;28;1558;-52
2021/07/27 05:26:27;;;;;;;;;;;;;;;;;;5018544;28;1622;-52
2021/07/27 05:28:52;;;;;;;;;;;;;;;;;;5021215;28;1589;-53
2021/07/27 05:31:19;;;;;;;;;;;;;;;;;;5021892;28;1586;-52
2021/07/27 05:33:44;;;;;;;;;;;;;;;;;;5022160;28;1015;-53
2021/07/27 05:36:09;;;;;;;;;;;;;;;;;;5019732;28;1269;-52
2021/07/27 05:38:34;;;;;;;;;;;;;;;;;;5021333;28;1898;-51
2021/07/27 05:40:59;;;;;;;;;;;;;;;;;;5021423;28;1950;-51
2021/07/27 05:43:25;;;;;;;;;;;;;;;;;;5022944;28;1660;-51
2021/07/27 05:45:50;;;;;;;;;;;;;;;;;;5020885;28;1264;-52
2021/07/27 05:48:15;;;;;;;;;;;;;;;;;;5023441;28;1323;-52
2021/07/27 05:50:40;;;;;;;;;;;;;;;;;;5024505;28;1110;-53
2021/07/27 05:53:06;;;;;;;;;;;;;;;;;;5024375;28;1558;-53
2021/07/27 05:55:31;;;;;;;;;;;;;;;;;;5023658;28;1568;-52
2021/07/27 05:57:56;;;;;;;;;;;;;;;;;;5025320;28;1347;-51
2021/07/27 06:00:21;;;;;;;;;;;;;;;;;;5024754;28;1906;-52
2021/07/27 06:02:46;;;;;;;;;;;;;;;;;;5023985;28;1465;-52
2021/07/27 06:05:12;;;;;;;;;;;;;;;;;;5028938;28;1593;-52
2021/07/27 06:07:37;;;;;;;;;;;;;;;;;;5021983;28;1274;-52
2021/07/27 06:10:02;;;;;;;;;;;;;;;;;;5026855;28;1637;-53
2021/07/27 06:12:27;;;;;;;;;;;;;;;;;;5027642;28;1188;-51
2021/07/27 06:14:53;;;;;;;;;;;;;;;;;;5028179;28;1284;-51
2021/07/27 06:17:18;;;;;;;;;;;;;;;;;;5021534;28;1293;-52
2021/07/27 06:19:43;;;;;;;;;;;;;;;;;;5015546;28;1961;-51
2021/07/27 06:22:08;;;;;;;;;;;;;;;;;;5023931;28;1253;-51
2021/07/27 06:24:33;;;;;;;;;;;;;;;;;;5025628;28;1244;-53
2021/07/27 06:26:59;;;;;;;;;;;;;;;;;;5026292;28;1605;-53
2021/07/27 06:29:24;;;;;;;;;;;;;;;;;;5027945;28;1247;-50
2021/07/27 06:31:49;;;;;;;;;;;;;;;;;;5023690;28;1034;-51
2021/07/27 06:34:15;;;;;;;;;;;;;;;;;;5023896;28;1541;-52
2021/07/27 06:36:40;;;;;;;;;;;;;;;;;;5022326;28;1314;-52
2021/07/27 06:39:05;;;;;;;;;;;;;;;;;;5024039;28;1941;-52
2021/07/27 06:41:30;;;;;;;;;;;;;;;;;;5024956;28;1613;-51
2021/07/27 06:43:57;;;;;;;;;;;;;;;;;;5023015;28;1169;-53
2021/07/27 06:46:22;;;;;;;;;;;;;;;;;;5023506;28;1276;-53
2021/07/27 06:48:47;;;;;;;;;;;;;;;;;;5025908;28;1589;-51
2021/07/27 06:51:14;;;;;;;;;;;;;;;;;;5024114;28;1197;-52
2021/07/27 06:53:40;;;;;;;;;;;;;;;;;;5026509;28;1164;-51
2021/07/27 06:56:08;;;;;;;;;;;;;;;;;;5021972;28;1641;-52
2021/07/27 06:58:34;;;;;;;;;;;;;;;;;;5025017;28;2148;-52
2021/07/27 07:01:02;;;;;;;;;;;;;;;;;;5023614;28;1146;-51
2021/07/27 07:03:28;;;;;;;;;;;;;;;;;;5022721;28;1302;-51
2021/07/27 07:05:53;;;;;;;;;;;;;;;;;;5013441;28;1560;-51
2021/07/27 07:08:18;;;;;;;;;;;;;;;;;;5023202;28;1503;-53
2021/07/27 07:10:43;;;;;;;;;;;;;;;;;;5027723;28;1569;-52
2021/07/27 07:13:08;;;;;;;;;;;;;;;;;;5022257;28;1182;-53
2021/07/27 07:15:34;;;;;;;;;;;;;;;;;;5022961;28;1363;-51
2021/07/27 07:17:59;;;;;;;;;;;;;;;;;;5022524;28;1415;-51
2021/07/27 07:20:27;;;;;;;;;;;;;;;;;;5022933;28;1931;-53
2021/07/27 07:22:52;;;;;;;;;;;;;;;;;;5019919;28;1069;-53
2021/07/27 07:25:17;;;;;;;;;;;;;;;;;;5026185;28;1581;-52
2021/07/27 07:27:42;;;;;;;;;;;;;;;;;;5023788;28;1237;-52
2021/07/27 07:30:07;;;;;;;;;;;;;;;;;;5024380;28;1540;-52
2021/07/27 07:32:33;;;;;;;;;;;;;;;;;;5023377;28;1062;-52
2021/07/27 07:34:59;;;;;;;;;;;;;;;;;;5023866;28;1363;-52
2021/07/27 07:37:24;;;;;;;;;;;;;;;;;;5025102;28;1395;-53
2021/07/27 07:39:49;;;;;;;;;;;;;;;;;;5024395;28;1967;-51
2021/07/27 07:42:14;;;;;;;;;;;;;;;;;;5022900;28;1728;-51
2021/07/27 07:44:40;;;;;;;;;;;;;;;;;;5022224;28;1455;-53
2021/07/27 07:47:05;;;;;;;;;;;;;;;;;;5027987;28;1304;-52
2021/07/27 07:49:30;;;;;;;;;;;;;;;;;;5021840;28;1581;-53
2021/07/27 07:51:58;;;;;;;;;;;;;;;;;;5025389;28;1430;-52
2021/07/27 07:54:26;;;;;;;;;;;;;;;;;;5024633;28;1300;-51
2021/07/27 07:56:52;;;;;;;;;;;;;;;;;;5023743;28;1625;-52
2021/07/27 07:59:17;;;;;;;;;;;;;;;;;;5020767;28;1942;-52
2021/07/27 08:01:47;;;;;;;;;;;;;;;;;;5023295;28;1392;-53
2021/07/27 08:04:13;;;;;;;;;;;;;;;;;;5021456;28;1653;-52
2021/07/27 08:06:38;;;;;;;;;;;;;;;;;;5025218;28;1422;-52
2021/07/27 08:09:03;;;;;;;;;;;;;;;;;;5023959;28;1121;-53
2021/07/27 08:11:28;;;;;;;;;;;;;;;;;;5022968;28;1609;-52
2021/07/27 08:13:56;;;;;;;;;;;;;;;;;;5021539;28;1097;-53
2021/07/27 08:16:21;;;;;;;;;;;;;;;;;;5018561;28;1399;-53
2021/07/27 08:18:47;;;;;;;;;;;;;;;;;;5022711;28;1906;-54
2021/07/27 08:21:12;;;;;;;;;;;;;;;;;;5020338;28;1194;-53
2021/07/27 08:23:40;;;;;;;;;;;;;;;;;;5021993;28;1209;-52
2021/07/27 08:26:05;;;;;;;;;;;;;;;;;;5019872;28;1684;-53
2021/07/27 08:28:31;;;;;;;;;;;;;;;;;;5026312;28;1185;-51
2021/07/27 08:30:57;;;;;;;;;;;;;;;;;;5030009;28;1437;-52
2021/07/27 08:33:23;;;;;;;;;;;;;;;;;;5028676;28;1251;-53
2021/07/27 08:35:48;;;;;;;;;;;;;;;;;;5029453;28;1789;-51
2021/07/27 08:38:13;;;;;;;;;;;;;;;;;;5025188;28;1914;-53
2021/07/27 08:40:39;;;;;;;;;;;;;;;;;;5025350;28;1680;-51
2021/07/27 08:43:05;;;;;;;;;;;;;;;;;;5027235;28;1593;-51
2021/07/27 08:45:30;;;;;;;;;;;;;;;;;;5022159;28;1284;-52
2021/07/27 08:47:55;;;;;;;;;;;;;;;;;;5021658;28;1613;-53
2021/07/27 08:50:20;;;;;;;;;;;;;;;;;;5008315;28;1149;-51
2021/07/27 08:52:45;;;;;;;;;;;;;;;;;;5026484;28;1133;-51
2021/07/27 08:55:11;;;;;;;;;;;;;;;;;;5025589;28;1622;-52
2021/07/27 08:57:45;;;;;;;;;;;;;;;;;;5024671;28;1362;-53
2021/07/27 09:00:12;;;;;;;;;;;;;;;;;;5007045;28;1961;-53
2021/07/27 09:02:38;;;;;;;;;;;;;;;;;;5022033;28;1472;-53
2021/07/27 09:05:04;;;;;;;;;;;;;;;;;;5021329;28;1572;-52
2021/07/27 09:07:29;;;;;;;;;;;;;;;;;;5022344;28;1288;-52
2021/07/27 09:09:54;;;;;;;;;;;;;;;;;;5022673;28;1498;-51
2021/07/27 09:12:20;;;;;;;;;;;;;;;;;;5005593;28;1069;-51
2021/07/27 09:14:45;;;;;;;;;;;;;;;;;;5022667;28;1189;-53
2021/07/27 09:17:10;;;;;;;;;;;;;;;;;;5021774;28;1459;-52
2021/07/27 09:19:41;;;;;;;;;;;;;;;;;;5022676;28;1930;-51
2021/07/27 09:22:06;;;;;;;;;;;;;;;;;;5018454;28;1412;-51
2021/07/27 09:24:34;;;;;;;;;;;;;;;;;;5023865;28;1196;-52
2021/07/27 09:27:03;;;;;;;;;;;;;;;;;;5022468;28;1630;-52
2021/07/27 09:29:29;;;;;;;;;;;;;;;;;;5023283;28;1315;-52
2021/07/27 09:31:55;;;;;;;;;;;;;;;;;;5023186;28;1245;-53
2021/07/27 09:34:20;;;;;;;;;;;;;;;;;;5021614;28;1601;-53
2021/07/27 09:36:45;;;;;;;;;;;;;;;;;;5022608;28;1288;-51
2021/07/27 09:39:10;;;;;;;;;;;;;;;;;;5023496;28;1906;-51
2021/07/27 09:41:36;;;;;;;;;;;;;;;;;;5022215;28;1566;-55
2021/07/27 09:44:01;;;;;;;;;;;;;;;;;;5021387;28;1138;-53
2021/07/27 09:46:26;;;;;;;;;;;;;;;;;;5024179;28;1402;-52
2021/07/27 09:48:52;;;;;;;;;;;;;;;;;;5024382;28;1083;-53
2021/07/27 09:51:17;;;;;;;;;;;;;;;;;;5021822;28;1541;-54
2021/07/27 09:53:43;;;;;;;;;;;;;;;;;;5023096;28;1301;-52
2021/07/27 09:56:08;;;;;;;;;;;;;;;;;;5023381;28;1689;-51
2021/07/27 09:58:33;;;;;;;;;;;;;;;;;;5022398;28;1902;-52
2021/07/27 10:01:19;;;;;;;;;;;;;;;;;;5022146;28;1205;-52
2021/07/27 10:03:44;;;;;;;;;;;;;;;;;;5021791;28;1589;-53
2021/07/27 10:06:09;;;;;;;;;;;;;;;;;;5023486;28;1375;-51
2021/07/27 10:08:35;;;;;;;;;;;;;;;;;;5003789;28;1154;-52
2021/07/27 10:11:10;;;;;;;;;;;;;;;;;;5019617;28;1486;-51
2021/07/27 10:13:36;;;;;;;;;;;;;;;;;;5021961;28;1220;-52
2021/07/27 10:16:01;;;;;;;;;;;;;;;;;;5022628;28;1288;-51
2021/07/27 10:18:33;;;;;;;;;;;;;;;;;;5021908;28;1983;-50
2021/07/27 10:21:20;;;;;;;;;;;;;;;;;;5023089;28;1131;-50
2021/07/27 10:23:45;;;;;;;;;;;;;;;;;;5021477;28;1688;-53
2021/07/27 10:26:10;;;;;;;;;;;;;;;;;;5021996;28;1736;-51
2021/07/27 10:28:36;;;;;;;;;;;;;;;;;;5004174;28;1260;-51
2021/07/27 10:31:07;;;;;;;;;;;;;;;;;;5022953;28;1201;-52
2021/07/27 10:33:32;;;;;;;;;;;;;;;;;;5020091;28;1558;-51
2021/07/27 10:35:57;;;;;;;;;;;;;;;;;;5024808;28;1292;-52
2021/07/27 10:38:33;;;;;;;;;;;;;;;;;;5024723;28;1914;-51
2021/07/27 10:40:58;;;;;;;;;;;;;;;;;;5025779;28;1543;-51
2021/07/27 10:43:23;;;;;;;;;;;;;;;;;;5026658;28;1133;-52
2021/07/27 10:46:01;;;;;;;;;;;;;;;;;;5026026;28;1347;-51
2021/07/27 10:48:33;;;;;;;;;;;;;;;;;;5027362;28;1170;-53
2021/07/27 10:50:58;;;;;;;;;;;;;;;;;;5023898;28;1562;-51
2021/07/27 10:53:24;;;;;;;;;;;;;;;;;;5012816;28;1188;-53
2021/07/27 10:55:50;;;;;;;;;;;;;;;;;;5028520;28;1566;-51
2021/07/27 10:58:16;;;;;;;;;;;;;;;;;;5011486;28;1899;-52
2021/07/27 11:00:41;;;;;;;;;;;;;;;;;;5013017;28;1337;-52
2021/07/27 11:03:07;;;;;;;;;;;;;;;;;;5023352;28;1177;-50
2021/07/27 11:05:32;;;;;;;;;;;;;;;;;;5022960;28;1282;-53
2021/07/27 11:07:57;;;;;;;;;;;;;;;;;;5023849;28;1509;-51
2021/07/27 11:10:23;;;;;;;;;;;;;;;;;;5023533;28;1719;-50
2021/07/27 11:12:48;;;;;;;;;;;;;;;;;;5026212;28;1498;-53
2021/07/27 11:15:14;;;;;;;;;;;;;;;;;;5025483;28;1169;-52
2021/07/27 11:17:46;;;;;;;;;;;;;;;;;;5007765;28;1392;-53
2021/07/27 11:20:16;;;;;;;;;;;;;;;;;;5022433;28;1981;-52
2021/07/27 11:22:42;;;;;;;;;;;;;;;;;;5022454;28;1632;-53
2021/07/27 11:25:07;;;;;;;;;;;;;;;;;;5021675;28;1589;-53
2021/07/27 11:27:32;;;;;;;;;;;;;;;;;;5024012;28;1458;-52
2021/07/27 11:29:58;;;;;;;;;;;;;;;;;;5013854;28;1174;-51
2021/07/27 11:32:26;;;;;;;;;;;;;;;;;;5023312;28;1975;-52
2021/07/27 11:34:57;;;;;;;;;;;;;;;;;;5010620;28;1583;-52
2021/07/27 11:37:26;;;;;;;;;;;;;;;;;;5021017;28;1276;-51
2021/07/27 11:39:51;;;;;;;;;;;;;;;;;;5021801;28;1914;-51
2021/07/27 11:42:16;;;;;;;;;;;;;;;;;;5026421;28;1756;-51
2021/07/27 11:44:42;;;;;;;;;;;;;;;;;;5009692;28;1568;-52
2021/07/27 11:47:08;;;;;;;;;;;;;;;;;;5023007;28;1361;-51
2021/07/27 11:49:34;;;;;;;;;;;;;;;;;;5014437;28;1407;-50
2021/07/27 11:52:01;;;;;;;;;;;;;;;;;;5013124;28;1050;-51
2021/07/27 11:54:26;;;;;;;;;;;;;;;;;;5020987;28;1068;-53
2021/07/27 11:56:51;;;;;;;;;;;;;;;;;;5022553;28;1574;-52
2021/07/27 11:59:26;;;;;;;;;;;;;;;;;;5023436;28;1899;-51
2021/07/27 12:01:51;;;;;;;;;;;;;;;;;;5022386;28;1062;-51
2021/07/27 12:04:19;;;;;;;;;;;;;;;;;;5022217;28;1569;-53
2021/07/27 12:06:48;;;;;;;;;;;;;;;;;;5020979;28;1220;-51
2021/07/27 12:09:13;;;;;;;;;;;;;;;;;;5022311;28;1577;-53
2021/07/27 12:11:38;;;;;;;;;;;;;;;;;;5024335;28;1633;-51
2021/07/27 12:14:03;;;;;;;;;;;;;;;;;;5024337;28;1382;-53
2021/07/27 12:16:31;;;;;;;;;;;;;;;;;;5022328;28;1273;-52
2021/07/27 12:18:57;;;;;;;;;;;;;;;;;;5020621;28;1959;-51
2021/07/27 12:21:22;;;;;;;;;;;;;;;;;;5022632;28;1015;-53
2021/07/27 12:23:47;;;;;;;;;;;;;;;;;;5023691;28;1339;-52
2021/07/27 12:26:12;;;;;;;;;;;;;;;;;;5024317;28;1668;-52
2021/07/27 12:28:37;;;;;;;;;;;;;;;;;;5020822;28;1374;-51
2021/07/27 12:31:02;;;;;;;;;;;;;;;;;;5021704;28;1247;-53
2021/07/27 12:33:30;;;;;;;;;;;;;;;;;;5016512;28;1935;-52
2021/07/27 12:35:55;;;;;;;;;;;;;;;;;;5023976;28;1280;-52
2021/07/27 12:38:22;;;;;;;;;;;;;;;;;;5011978;28;1965;-51
2021/07/27 12:40:47;;;;;;;;;;;;;;;;;;5024711;28;2092;-52
2021/07/27 12:43:12;;;;;;;;;;;;;;;;;;5021973;28;1126;-52
2021/07/27 12:45:43;;;;;;;;;;;;;;;;;;5022949;28;1288;-52
2021/07/27 12:48:08;;;;;;;;;;;;;;;;;;5022606;28;1542;-53
2021/07/27 12:50:33;;;;;;;;;;;;;;;;;;5023131;28;1569;-52
2021/07/27 12:52:58;;;;;;;;;;;;;;;;;;5021397;28;1197;-53
2021/07/27 12:55:23;;;;;;;;;;;;;;;;;;5018359;28;1572;-52
2021/07/27 12:57:49;;;;;;;;;;;;;;;;;;5024060;28;1300;-52
2021/07/27 13:00:14;;;;;;;;;;;;;;;;;;5025133;28;1910;-52
2021/07/27 13:02:40;;;;;;;;;;;;;;;;;;5022025;28;1354;-52
2021/07/27 13:05:05;;;;;;;;;;;;;;;;;;5022611;28;1625;-52
2021/07/27 13:07:30;;;;;;;;;;;;;;;;;;5024412;28;1272;-51
2021/07/27 13:09:56;;;;;;;;;;;;;;;;;;5011092;28;1574;-50
2021/07/27 13:12:21;;;;;;;;;;;;;;;;;;5022339;28;1165;-52
2021/07/27 13:14:46;;;;;;;;;;;;;;;;;;5022635;28;1580;-52
2021/07/27 13:17:11;;;;;;;;;;;;;;;;;;5022422;28;1280;-52
2021/07/27 13:19:36;;;;;;;;;;;;;;;;;;5021584;28;1994;-50
2021/07/27 13:22:05;;;;;;;;;;;;;;;;;;5024710;28;1126;-52
2021/07/27 13:24:31;;;;;;;;;;;;;;;;;;5021376;28;1566;-52
2021/07/27 13:26:56;;;;;;;;;;;;;;;;;;5017894;28;1617;-50
2021/07/27 13:29:21;;;;;;;;;;;;;;;;;;5020950;28;1366;-53
2021/07/27 13:31:46;;;;;;;;;;;;;;;;;;5021895;28;1409;-52
2021/07/27 13:34:11;;;;;;;;;;;;;;;;;;5019989;28;1621;-52
2021/07/27 13:36:40;;;;;;;;;;;;;;;;;;5022552;28;1410;-50
2021/07/27 13:39:05;;;;;;;;;;;;;;;;;;5032540;23;1910;-53
2021/07/27 13:41:31;;;;;;;;;;;;;;;;;;5020630;28;1557;-52
2021/07/27 13:43:56;;;;;;;;;;;;;;;;;;5023961;28;1264;-51
2021/07/27 13:46:21;;;;;;;;;;;;;;;;;;5020981;28;1374;-52
2021/07/27 13:48:46;;;;;;;;;;;;;;;;;;5018916;28;1629;-53
2021/07/27 13:51:11;;;;;;;;;;;;;;;;;;5025404;28;1421;-52
2021/07/27 13:53:36;;;;;;;;;;;;;;;;;;5024058;28;1125;-53
2021/07/27 13:56:02;;;;;;;;;;;;;;;;;;5017274;28;1513;-52
2021/07/27 13:58:27;;;;;;;;;;;;;;;;;;5022359;28;1972;-51
2021/07/27 14:00:52;;;;;;;;;;;;;;;;;;5008014;28;1531;-53
2021/07/27 14:03:17;;;;;;;;;;;;;;;;;;5022196;28;1288;-51
2021/07/27 14:05:43;;;;;;;;;;;;;;;;;;5021817;28;1303;-52
2021/07/27 14:08:08;;;;;;;;;;;;;;;;;;5024039;28;1249;-53
2021/07/27 14:10:33;;;;;;;;;;;;;;;;;;5023368;28;1638;-52
2021/07/27 14:12:58;;;;;;;;;;;;;;;;;;5029718;28;1403;-51
2021/07/27 14:15:23;;;;;;;;;;;;;;;;;;5026312;28;1177;-53
2021/07/27 14:17:48;;;;;;;;;;;;;;;;;;5024342;28;1229;-53
2021/07/27 14:20:14;;;;;;;;;;;;;;;;;;5030013;28;1930;-52
2021/07/27 14:22:39;;;;;;;;;;;;;;;;;;5025722;28;1177;-51
2021/07/27 14:25:05;;;;;;;;;;;;;;;;;;5027500;28;1848;-53
2021/07/27 14:27:30;;;;;;;;;;;;;;;;;;5024128;28;1533;-52
2021/07/27 14:29:55;;;;;;;;;;;;;;;;;;5027749;28;1078;-52
2021/07/27 14:32:20;;;;;;;;;;;;;;;;;;5026433;28;1586;-52
2021/07/27 14:34:45;;;;;;;;;;;;;;;;;;5027476;28;1197;-53
2021/07/27 14:37:11;;;;;;;;;;;;;;;;;;5027899;28;1383;-51
2021/07/27 14:39:36;;;;;;;;;;;;;;;;;;5025150;28;2249;-51
2021/07/27 14:42:01;;;;;;;;;;;;;;;;;;5024303;28;1583;-52
2021/07/27 14:44:26;;;;;;;;;;;;;;;;;;5025103;28;1471;-50
2021/07/27 14:46:51;;;;;;;;;;;;;;;;;;5024841;28;1617;-53
2021/07/27 14:49:17;;;;;;;;;;;;;;;;;;5022888;28;1687;-51
2021/07/27 14:51:42;;;;;;;;;;;;;;;;;;5023331;28;1878;-51
2021/07/27 14:54:07;;;;;;;;;;;;;;;;;;5027953;28;1633;-52
2021/07/27 14:56:35;;;;;;;;;;;;;;;;;;5019565;28;1633;-53
2021/07/27 14:59:01;;;;;;;;;;;;;;;;;;5026001;28;1914;-53
2021/07/27 15:01:26;;;;;;;;;;;;;;;;;;5012710;28;1142;-53
2021/07/27 15:03:51;;;;;;;;;;;;;;;;;;5020463;28;1542;-52
2021/07/27 15:06:16;;;;;;;;;;;;;;;;;;5027178;28;1348;-52
2021/07/27 15:08:41;;;;;;;;;;;;;;;;;;5010055;28;1589;-52
2021/07/27 15:11:07;;;;;;;;;;;;;;;;;;5024159;28;1748;-51
2021/07/27 15:13:32;;;;;;;;;;;;;;;;;;5023354;28;1514;-52
2021/07/27 15:15:58;;;;;;;;;;;;;;;;;;5023435;28;1613;-51
2021/07/27 15:18:23;;;;;;;;;;;;;;;;;;5021549;28;1393;-51
2021/07/27 15:20:48;;;;;;;;;;;;;;;;;;5026903;28;1907;-51
2021/07/27 15:23:14;;;;;;;;;;;;;;;;;;5024248;28;1177;-51
2021/07/27 15:25:39;;;;;;;;;;;;;;;;;;5020862;28;1605;-51
2021/07/27 15:28:04;;;;;;;;;;;;;;;;;;5024832;28;1289;-51
2021/07/27 15:30:29;;;;;;;;;;;;;;;;;;5008720;28;1812;-52
2021/07/27 15:32:55;;;;;;;;;;;;;;;;;;5025816;28;1062;-53
2021/07/27 15:35:20;;;;;;;;;;;;;;;;;;5023397;28;1283;-52
2021/07/27 15:37:45;;;;;;;;;;;;;;;;;;5026371;28;1386;-51
2021/07/27 15:40:10;;;;;;;;;;;;;;;;;;5023001;28;1910;-51
2021/07/27 15:42:36;;;;;;;;;;;;;;;;;;5025026;28;1125;-52
2021/07/27 15:45:01;;;;;;;;;;;;;;;;;;5023390;28;1514;-50
2021/07/27 15:47:27;;;;;;;;;;;;;;;;;;5024609;28;1248;-53
2021/07/27 15:49:53;;;;;;;;;;;;;;;;;;5022305;28;1109;-51
2021/07/27 15:52:18;;;;;;;;;;;;;;;;;;5028616;28;1410;-53
2021/07/27 15:54:43;;;;;;;;;;;;;;;;;;5023698;28;1515;-53
2021/07/27 15:57:08;;;;;;;;;;;;;;;;;;5018631;28;1617;-52
2021/07/27 15:59:34;;;;;;;;;;;;;;;;;;5024972;28;1950;-51
2021/07/27 16:01:59;;;;;;;;;;;;;;;;;;5023992;28;1185;-51
2021/07/27 16:04:24;;;;;;;;;;;;;;;;;;5024799;28;1184;-52
2021/07/27 16:06:49;;;;;;;;;;;;;;;;;;5023374;28;1593;-53
2021/07/27 16:09:15;;;;;;;;;;;;;;;;;;5024039;28;1231;-53
2021/07/27 16:11:40;;;;;;;;;;;;;;;;;;5023236;28;1614;-51
2021/07/27 16:14:05;;;;;;;;;;;;;;;;;;5023602;28;1221;-53
2021/07/27 16:16:30;;;;;;;;;;;;;;;;;;5022067;28;1213;-51
2021/07/27 16:18:55;;;;;;;;;;;;;;;;;;5024688;28;1906;-53
2021/07/27 16:21:22;;;;;;;;;;;;;;;;;;5022857;28;1562;-51
2021/07/27 16:23:47;;;;;;;;;;;;;;;;;;5026314;28;1284;-52
2021/07/27 16:26:12;;;;;;;;;;;;;;;;;;5026478;28;1522;-52
2021/07/27 16:28:38;;;;;;;;;;;;;;;;;;5026643;28;1371;-50
2021/07/27 16:31:03;;;;;;;;;;;;;;;;;;5026233;28;1229;-51
2021/07/27 16:33:28;;;;;;;;;;;;;;;;;;5024841;28;1263;-53
2021/07/27 16:35:53;;;;;;;;;;;;;;;;;;5025124;28;1543;-51
2021/07/27 16:38:18;;;;;;;;;;;;;;;;;;5028014;28;1331;-52
2021/07/27 16:40:43;;;;;;;;;;;;;;;;;;5025898;28;1968;-50
2021/07/27 16:43:09;;;;;;;;;;;;;;;;;;5024295;28;1664;-51
2021/07/27 16:45:34;;;;;;;;;;;;;;;;;;5025676;28;1378;-52
2021/07/27 16:48:00;;;;;;;;;;;;;;;;;;5027653;28;1613;-53
2021/07/27 16:50:25;;;;;;;;;;;;;;;;;;5029256;28;1090;-51
2021/07/27 16:52:50;;;;;;;;;;;;;;;;;;5026135;28;1311;-52
2021/07/27 16:55:15;;;;;;;;;;;;;;;;;;5020569;28;1622;-53
2021/07/27 16:57:41;;;;;;;;;;;;;;;;;;5025601;28;1303;-53
2021/07/27 17:00:06;;;;;;;;;;;;;;;;;;5018790;28;1910;-53
2021/07/27 17:02:32;;;;;;;;;;;;;;;;;;5024862;28;1318;-52
2021/07/27 17:04:57;;;;;;;;;;;;;;;;;;5024049;28;1070;-52
2021/07/27 17:07:23;;;;;;;;;;;;;;;;;;5027363;28;1511;-52
2021/07/27 17:09:48;;;;;;;;;;;;;;;;;;5026078;28;1098;-53
2021/07/27 17:12:13;;;;;;;;;;;;;;;;;;5024203;28;1633;-51
2021/07/27 17:14:38;;;;;;;;;;;;;;;;;;5022489;28;1326;-52